sensor_id;sensor_type;location;lat;lon;timestamp;temperature;humidity
790;DHT22;378;48.844;9.156;2022-09-09T00:00:26;15.90;99.90
790;DHT22;378;48.844;9.156;2022-09-09T00:03:02;15.90;99.90
790;DHT22;378;48.844;9.156;2022-09-09T00:05:38;15.90;99.90
790;DHT22;378;48.844;9.156;2022-09-09T00:08:15;15.90;99.90
790;DHT22;378;48.844;9.156;2022-09-09T00:10:43;15.80;99.90
790;DHT22;378;48.844;9.156;2022-09-09T00:13:17;15.70;99.90
790;DHT22;378;48.844;9.156;2022-09-09T00:15:52;15.70;99.90
790;DHT22;378;48.844;9.156;2022-09-09T00:18:25;15.70;99.90
790;DHT22;378;48.844;9.156;2022-09-09T00:20:58;15.70;99.90
790;DHT22;378;48.844;9.156;2022-09-09T00:23:34;15.80;99.90
790;DHT22;378;48.844;9.156;2022-09-09T00:26:07;15.90;99.90
790;DHT22;378;48.844;9.156;2022-09-09T00:28:39;15.90;99.90
790;DHT22;378;48.844;9.156;2022-09-09T00:31:13;16.00;99.90
790;DHT22;378;48.844;9.156;2022-09-09T00:33:40;16.00;99.90
790;DHT22;378;48.844;9.156;2022-09-09T00:36:13;16.10;99.90
790;DHT22;378;48.844;9.156;2022-09-09T00:38:46;16.20;99.90
790;DHT22;378;48.844;9.156;2022-09-09T00:41:20;16.30;99.90
790;DHT22;378;48.844;9.156;2022-09-09T00:43:55;16.30;99.90
790;DHT22;378;48.844;9.156;2022-09-09T00:49:45;16.30;99.90
790;DHT22;378;48.844;9.156;2022-09-09T00:52:25;16.30;99.90
790;DHT22;378;48.844;9.156;2022-09-09T00:55:03;16.30;99.90
790;DHT22;378;48.844;9.156;2022-09-09T00:57:32;16.30;99.90
790;DHT22;378;48.844;9.156;2022-09-09T01:02:51;16.20;99.90
790;DHT22;378;48.844;9.156;2022-09-09T01:05:22;16.20;99.90
790;DHT22;378;48.844;9.156;2022-09-09T01:07:50;16.20;99.90
790;DHT22;378;48.844;9.156;2022-09-09T01:10:27;16.20;99.90
790;DHT22;378;48.844;9.156;2022-09-09T01:12:58;16.10;99.90
790;DHT22;378;48.844;9.156;2022-09-09T01:15:29;16.20;99.90
790;DHT22;378;48.844;9.156;2022-09-09T01:18:01;16.20;99.90
790;DHT22;378;48.844;9.156;2022-09-09T01:20:37;16.20;99.90
790;DHT22;378;48.844;9.156;2022-09-09T01:23:29;16.20;99.90
790;DHT22;378;48.844;9.156;2022-09-09T01:26:19;16.20;99.90
790;DHT22;378;48.844;9.156;2022-09-09T01:28:49;16.20;99.90
790;DHT22;378;48.844;9.156;2022-09-09T01:31:20;16.10;99.90
790;DHT22;378;48.844;9.156;2022-09-09T01:33:48;16.10;99.90
790;DHT22;378;48.844;9.156;2022-09-09T01:36:21;16.10;99.90
790;DHT22;378;48.844;9.156;2022-09-09T01:38:51;16.00;99.90
790;DHT22;378;48.844;9.156;2022-09-09T01:41:20;16.00;99.90
790;DHT22;378;48.844;9.156;2022-09-09T01:43:47;16.10;99.90
790;DHT22;378;48.844;9.156;2022-09-09T01:46:14;16.10;99.90
790;DHT22;378;48.844;9.156;2022-09-09T01:48:42;16.10;99.90
790;DHT22;378;48.844;9.156;2022-09-09T01:51:10;16.10;99.90
790;DHT22;378;48.844;9.156;2022-09-09T01:53:38;16.00;99.90
790;DHT22;378;48.844;9.156;2022-09-09T01:56:14;16.00;99.90
790;DHT22;378;48.844;9.156;2022-09-09T01:58:56;16.00;99.90
790;DHT22;378;48.844;9.156;2022-09-09T02:01:34;16.00;99.90
790;DHT22;378;48.844;9.156;2022-09-09T02:04:18;16.00;99.90
790;DHT22;378;48.844;9.156;2022-09-09T02:06:48;15.90;99.90
790;DHT22;378;48.844;9.156;2022-09-09T02:09:19;15.80;99.90
790;DHT22;378;48.844;9.156;2022-09-09T02:11:51;15.70;99.90
790;DHT22;378;48.844;9.156;2022-09-09T02:14:26;15.70;99.90
790;DHT22;378;48.844;9.156;2022-09-09T02:16:57;15.70;99.90
790;DHT22;378;48.844;9.156;2022-09-09T02:19:28;15.80;99.90
790;DHT22;378;48.844;9.156;2022-09-09T02:21:58;15.90;99.90
790;DHT22;378;48.844;9.156;2022-09-09T02:24:27;15.90;99.90
790;DHT22;378;48.844;9.156;2022-09-09T02:26:57;16.00;99.90
790;DHT22;378;48.844;9.156;2022-09-09T02:29:29;16.00;99.90
790;DHT22;378;48.844;9.156;2022-09-09T02:32:00;16.00;99.90
790;DHT22;378;48.844;9.156;2022-09-09T02:34:29;16.00;99.90
790;DHT22;378;48.844;9.156;2022-09-09T02:39:34;16.00;99.90
790;DHT22;378;48.844;9.156;2022-09-09T02:42:02;16.00;99.90
790;DHT22;378;48.844;9.156;2022-09-09T02:44:31;16.00;99.90
790;DHT22;378;48.844;9.156;2022-09-09T02:47:10;16.00;99.90
790;DHT22;378;48.844;9.156;2022-09-09T02:49:49;15.90;99.90
790;DHT22;378;48.844;9.156;2022-09-09T02:52:26;15.80;99.90
790;DHT22;378;48.844;9.156;2022-09-09T02:54:59;15.70;99.90
790;DHT22;378;48.844;9.156;2022-09-09T02:57:30;15.60;99.90
790;DHT22;378;48.844;9.156;2022-09-09T02:59:59;15.60;99.90
790;DHT22;378;48.844;9.156;2022-09-09T03:02:27;15.50;99.90
790;DHT22;378;48.844;9.156;2022-09-09T03:04:54;15.50;99.90
790;DHT22;378;48.844;9.156;2022-09-09T03:07:21;15.50;99.90
790;DHT22;378;48.844;9.156;2022-09-09T03:09:48;15.50;99.90
790;DHT22;378;48.844;9.156;2022-09-09T03:12:15;15.40;99.90
790;DHT22;378;48.844;9.156;2022-09-09T03:14:41;15.40;99.90
790;DHT22;378;48.844;9.156;2022-09-09T03:17:12;15.40;99.90
790;DHT22;378;48.844;9.156;2022-09-09T03:19:39;15.40;99.90
790;DHT22;378;48.844;9.156;2022-09-09T03:22:07;15.30;99.90
790;DHT22;378;48.844;9.156;2022-09-09T03:24:35;15.40;99.90
790;DHT22;378;48.844;9.156;2022-09-09T03:27:02;15.30;99.90
790;DHT22;378;48.844;9.156;2022-09-09T03:29:28;15.30;99.90
790;DHT22;378;48.844;9.156;2022-09-09T03:31:55;15.30;99.90
790;DHT22;378;48.844;9.156;2022-09-09T03:34:23;15.20;99.90
790;DHT22;378;48.844;9.156;2022-09-09T03:36:50;15.20;99.90
790;DHT22;378;48.844;9.156;2022-09-09T03:39:17;15.10;99.90
790;DHT22;378;48.844;9.156;2022-09-09T03:41:44;15.10;99.90
790;DHT22;378;48.844;9.156;2022-09-09T03:44:13;15.00;99.90
790;DHT22;378;48.844;9.156;2022-09-09T03:46:40;15.00;99.90
790;DHT22;378;48.844;9.156;2022-09-09T03:49:07;15.00;99.90
790;DHT22;378;48.844;9.156;2022-09-09T03:51:37;15.10;99.90
790;DHT22;378;48.844;9.156;2022-09-09T03:54:04;15.00;99.90
790;DHT22;378;48.844;9.156;2022-09-09T03:56:33;15.10;99.90
790;DHT22;378;48.844;9.156;2022-09-09T03:59:00;15.20;99.90
790;DHT22;378;48.844;9.156;2022-09-09T04:01:27;15.20;99.90
790;DHT22;378;48.844;9.156;2022-09-09T04:03:54;15.30;99.90
790;DHT22;378;48.844;9.156;2022-09-09T04:06:23;15.20;99.90
790;DHT22;378;48.844;9.156;2022-09-09T04:08:52;15.40;99.90
790;DHT22;378;48.844;9.156;2022-09-09T04:11:20;15.40;99.90
790;DHT22;378;48.844;9.156;2022-09-09T04:13:47;15.60;99.90
790;DHT22;378;48.844;9.156;2022-09-09T04:16:14;15.60;99.90
790;DHT22;378;48.844;9.156;2022-09-09T04:18:41;15.70;99.90
790;DHT22;378;48.844;9.156;2022-09-09T04:21:09;15.80;99.90
790;DHT22;378;48.844;9.156;2022-09-09T04:23:38;15.90;99.90
790;DHT22;378;48.844;9.156;2022-09-09T04:26:06;15.90;99.90
790;DHT22;378;48.844;9.156;2022-09-09T04:28:35;16.00;99.90
790;DHT22;378;48.844;9.156;2022-09-09T04:31:06;16.00;99.90
790;DHT22;378;48.844;9.156;2022-09-09T04:33:34;16.10;99.90
790;DHT22;378;48.844;9.156;2022-09-09T04:36:02;16.10;99.90
790;DHT22;378;48.844;9.156;2022-09-09T04:38:28;16.20;99.90
790;DHT22;378;48.844;9.156;2022-09-09T04:40:55;16.10;99.90
790;DHT22;378;48.844;9.156;2022-09-09T04:43:24;16.00;99.90
790;DHT22;378;48.844;9.156;2022-09-09T04:45:54;15.90;99.90
790;DHT22;378;48.844;9.156;2022-09-09T04:48:21;15.80;99.90
790;DHT22;378;48.844;9.156;2022-09-09T04:50:55;15.80;99.90
790;DHT22;378;48.844;9.156;2022-09-09T04:53:22;15.70;99.90
790;DHT22;378;48.844;9.156;2022-09-09T04:55:49;15.50;99.90
790;DHT22;378;48.844;9.156;2022-09-09T04:58:16;15.40;99.90
790;DHT22;378;48.844;9.156;2022-09-09T05:00:45;15.30;99.90
790;DHT22;378;48.844;9.156;2022-09-09T05:03:12;15.30;99.90
790;DHT22;378;48.844;9.156;2022-09-09T05:05:38;15.30;99.90
790;DHT22;378;48.844;9.156;2022-09-09T05:08:07;15.40;99.90
790;DHT22;378;48.844;9.156;2022-09-09T05:10:36;15.30;99.90
790;DHT22;378;48.844;9.156;2022-09-09T05:13:04;15.20;99.90
790;DHT22;378;48.844;9.156;2022-09-09T05:15:32;15.30;99.90
790;DHT22;378;48.844;9.156;2022-09-09T05:18:00;15.30;99.90
790;DHT22;378;48.844;9.156;2022-09-09T05:20:28;15.40;99.90
790;DHT22;378;48.844;9.156;2022-09-09T05:22:55;15.50;99.90
790;DHT22;378;48.844;9.156;2022-09-09T05:25:23;15.50;99.90
790;DHT22;378;48.844;9.156;2022-09-09T05:27:51;15.60;99.90
790;DHT22;378;48.844;9.156;2022-09-09T05:30:18;15.70;99.90
790;DHT22;378;48.844;9.156;2022-09-09T05:32:45;15.80;99.90
790;DHT22;378;48.844;9.156;2022-09-09T05:35:15;15.80;99.90
790;DHT22;378;48.844;9.156;2022-09-09T05:37:44;15.90;99.90
790;DHT22;378;48.844;9.156;2022-09-09T05:40:11;16.30;99.90
790;DHT22;378;48.844;9.156;2022-09-09T05:42:38;17.10;99.90
790;DHT22;378;48.844;9.156;2022-09-09T05:45:06;17.40;99.90
790;DHT22;378;48.844;9.156;2022-09-09T05:47:34;17.40;99.90
790;DHT22;378;48.844;9.156;2022-09-09T05:50:00;17.40;99.90
790;DHT22;378;48.844;9.156;2022-09-09T05:52:29;17.30;99.90
790;DHT22;378;48.844;9.156;2022-09-09T05:54:55;17.20;99.90
790;DHT22;378;48.844;9.156;2022-09-09T05:57:23;17.20;99.90
790;DHT22;378;48.844;9.156;2022-09-09T05:59:50;17.30;99.90
790;DHT22;378;48.844;9.156;2022-09-09T06:02:17;17.40;99.90
790;DHT22;378;48.844;9.156;2022-09-09T06:04:44;17.40;99.90
790;DHT22;378;48.844;9.156;2022-09-09T06:07:11;17.40;99.90
790;DHT22;378;48.844;9.156;2022-09-09T06:09:41;17.50;99.90
790;DHT22;378;48.844;9.156;2022-09-09T06:12:08;17.50;99.90
790;DHT22;378;48.844;9.156;2022-09-09T06:14:35;17.50;99.90
790;DHT22;378;48.844;9.156;2022-09-09T06:17:02;17.50;99.90
790;DHT22;378;48.844;9.156;2022-09-09T06:19:29;17.60;99.90
790;DHT22;378;48.844;9.156;2022-09-09T06:21:56;17.70;99.90
790;DHT22;378;48.844;9.156;2022-09-09T06:24:23;17.70;99.90
790;DHT22;378;48.844;9.156;2022-09-09T06:26:51;17.70;99.90
790;DHT22;378;48.844;9.156;2022-09-09T06:29:18;17.80;99.90
790;DHT22;378;48.844;9.156;2022-09-09T06:31:45;17.80;99.90
790;DHT22;378;48.844;9.156;2022-09-09T06:34:13;17.90;99.90
790;DHT22;378;48.844;9.156;2022-09-09T06:36:40;17.90;99.90
790;DHT22;378;48.844;9.156;2022-09-09T06:39:07;17.90;99.90
790;DHT22;378;48.844;9.156;2022-09-09T06:41:34;18.00;99.90
790;DHT22;378;48.844;9.156;2022-09-09T06:44:02;18.00;99.90
790;DHT22;378;48.844;9.156;2022-09-09T06:46:30;18.10;99.90
790;DHT22;378;48.844;9.156;2022-09-09T06:48:59;18.10;99.90
790;DHT22;378;48.844;9.156;2022-09-09T06:51:27;18.10;99.90
790;DHT22;378;48.844;9.156;2022-09-09T06:53:56;18.20;99.90
790;DHT22;378;48.844;9.156;2022-09-09T06:56:25;18.40;99.90
790;DHT22;378;48.844;9.156;2022-09-09T06:58:54;18.30;99.90
790;DHT22;378;48.844;9.156;2022-09-09T07:01:24;18.20;99.90
790;DHT22;378;48.844;9.156;2022-09-09T07:03:52;18.20;99.90
790;DHT22;378;48.844;9.156;2022-09-09T07:06:21;18.30;99.90
790;DHT22;378;48.844;9.156;2022-09-09T07:08:49;18.30;99.90
790;DHT22;378;48.844;9.156;2022-09-09T07:11:18;18.40;99.90
790;DHT22;378;48.844;9.156;2022-09-09T07:13:45;18.40;99.90
790;DHT22;378;48.844;9.156;2022-09-09T07:16:13;18.30;99.90
790;DHT22;378;48.844;9.156;2022-09-09T07:18:42;18.40;99.90
790;DHT22;378;48.844;9.156;2022-09-09T07:21:10;18.50;99.90
790;DHT22;378;48.844;9.156;2022-09-09T07:23:38;18.60;99.90
790;DHT22;378;48.844;9.156;2022-09-09T07:26:08;18.70;99.90
790;DHT22;378;48.844;9.156;2022-09-09T07:28:36;18.80;99.90
790;DHT22;378;48.844;9.156;2022-09-09T07:31:04;18.90;99.90
790;DHT22;378;48.844;9.156;2022-09-09T07:33:32;19.00;99.90
790;DHT22;378;48.844;9.156;2022-09-09T07:36:05;19.10;99.90
790;DHT22;378;48.844;9.156;2022-09-09T07:38:37;19.20;99.90
790;DHT22;378;48.844;9.156;2022-09-09T07:41:05;19.40;99.90
790;DHT22;378;48.844;9.156;2022-09-09T07:43:33;19.80;99.90
790;DHT22;378;48.844;9.156;2022-09-09T07:46:00;20.30;99.90
790;DHT22;378;48.844;9.156;2022-09-09T07:48:28;20.60;99.90
790;DHT22;378;48.844;9.156;2022-09-09T07:51:05;20.80;99.90
790;DHT22;378;48.844;9.156;2022-09-09T07:53:33;21.00;99.90
790;DHT22;378;48.844;9.156;2022-09-09T07:56:06;20.80;99.90
790;DHT22;378;48.844;9.156;2022-09-09T07:58:35;20.90;99.90
790;DHT22;378;48.844;9.156;2022-09-09T08:01:06;21.70;99.90
790;DHT22;378;48.844;9.156;2022-09-09T08:03:34;22.50;99.90
790;DHT22;378;48.844;9.156;2022-09-09T08:06:01;23.20;99.90
790;DHT22;378;48.844;9.156;2022-09-09T08:08:30;23.70;99.90
790;DHT22;378;48.844;9.156;2022-09-09T08:11:05;23.80;99.90
790;DHT22;378;48.844;9.156;2022-09-09T08:13:33;23.20;99.90
790;DHT22;378;48.844;9.156;2022-09-09T08:16:07;22.70;99.90
790;DHT22;378;48.844;9.156;2022-09-09T08:18:34;22.60;99.90
790;DHT22;378;48.844;9.156;2022-09-09T08:21:12;23.20;99.90
790;DHT22;378;48.844;9.156;2022-09-09T08:23:41;24.00;99.90
790;DHT22;378;48.844;9.156;2022-09-09T08:26:11;24.60;99.90
790;DHT22;378;48.844;9.156;2022-09-09T08:28:39;25.00;99.90
790;DHT22;378;48.844;9.156;2022-09-09T08:31:08;25.30;99.90
790;DHT22;378;48.844;9.156;2022-09-09T08:33:36;25.30;99.90
790;DHT22;378;48.844;9.156;2022-09-09T08:36:05;25.70;99.90
790;DHT22;378;48.844;9.156;2022-09-09T08:41:12;24.50;99.90
790;DHT22;378;48.844;9.156;2022-09-09T08:43:47;23.90;99.90
790;DHT22;378;48.844;9.156;2022-09-09T08:46:21;23.90;99.90
790;DHT22;378;48.844;9.156;2022-09-09T08:48:55;24.30;99.90
790;DHT22;378;48.844;9.156;2022-09-09T08:51:25;24.70;99.90
790;DHT22;378;48.844;9.156;2022-09-09T08:53:54;25.20;99.90
790;DHT22;378;48.844;9.156;2022-09-09T08:56:27;25.60;99.90
790;DHT22;378;48.844;9.156;2022-09-09T08:59:00;25.60;99.90
790;DHT22;378;48.844;9.156;2022-09-09T09:01:43;25.50;99.90
790;DHT22;378;48.844;9.156;2022-09-09T09:07:16;25.80;99.90
790;DHT22;378;48.844;9.156;2022-09-09T09:09:54;25.60;99.90
790;DHT22;378;48.844;9.156;2022-09-09T09:12:28;25.50;99.90
790;DHT22;378;48.844;9.156;2022-09-09T09:14:55;25.80;99.90
790;DHT22;378;48.844;9.156;2022-09-09T09:17:27;25.30;99.90
790;DHT22;378;48.844;9.156;2022-09-09T09:19:57;24.30;99.90
790;DHT22;378;48.844;9.156;2022-09-09T09:22:30;23.50;99.90
790;DHT22;378;48.844;9.156;2022-09-09T09:25:04;22.90;99.90
790;DHT22;378;48.844;9.156;2022-09-09T09:27:35;22.50;99.90
790;DHT22;378;48.844;9.156;2022-09-09T09:30:12;22.20;99.90
790;DHT22;378;48.844;9.156;2022-09-09T09:32:47;22.00;99.90
790;DHT22;378;48.844;9.156;2022-09-09T09:35:16;21.80;99.90
790;DHT22;378;48.844;9.156;2022-09-09T09:37:42;21.60;99.90
790;DHT22;378;48.844;9.156;2022-09-09T09:40:11;21.40;99.90
790;DHT22;378;48.844;9.156;2022-09-09T09:42:48;21.30;99.90
790;DHT22;378;48.844;9.156;2022-09-09T09:45:18;21.50;99.90
790;DHT22;378;48.844;9.156;2022-09-09T09:47:58;22.10;99.90
790;DHT22;378;48.844;9.156;2022-09-09T09:50:25;22.80;99.90
790;DHT22;378;48.844;9.156;2022-09-09T09:52:56;23.50;99.90
790;DHT22;378;48.844;9.156;2022-09-09T09:55:25;23.90;99.90
790;DHT22;378;48.844;9.156;2022-09-09T09:57:54;24.30;99.90
790;DHT22;378;48.844;9.156;2022-09-09T10:00:26;24.60;99.90
790;DHT22;378;48.844;9.156;2022-09-09T10:02:53;24.90;99.90
790;DHT22;378;48.844;9.156;2022-09-09T10:05:23;25.30;99.90
790;DHT22;378;48.844;9.156;2022-09-09T10:08:01;25.60;99.90
790;DHT22;378;48.844;9.156;2022-09-09T10:10:40;25.60;99.90
790;DHT22;378;48.844;9.156;2022-09-09T10:13:15;25.70;99.90
790;DHT22;378;48.844;9.156;2022-09-09T10:15:52;25.70;99.90
790;DHT22;378;48.844;9.156;2022-09-09T10:18:45;25.70;99.90
790;DHT22;378;48.844;9.156;2022-09-09T10:21:24;25.90;99.90
790;DHT22;378;48.844;9.156;2022-09-09T10:24:17;25.90;99.90
790;DHT22;378;48.844;9.156;2022-09-09T10:26:53;25.80;99.90
790;DHT22;378;48.844;9.156;2022-09-09T10:29:38;25.70;99.90
790;DHT22;378;48.844;9.156;2022-09-09T10:32:25;25.60;99.90
790;DHT22;378;48.844;9.156;2022-09-09T10:35:00;25.70;99.90
790;DHT22;378;48.844;9.156;2022-09-09T10:37:41;26.10;99.90
790;DHT22;378;48.844;9.156;2022-09-09T10:40:23;26.90;99.90
790;DHT22;378;48.844;9.156;2022-09-09T10:43:02;26.80;99.90
790;DHT22;378;48.844;9.156;2022-09-09T10:45:39;26.10;99.90
790;DHT22;378;48.844;9.156;2022-09-09T10:48:25;26.20;99.90
790;DHT22;378;48.844;9.156;2022-09-09T10:51:06;26.50;99.90
790;DHT22;378;48.844;9.156;2022-09-09T10:53:45;26.20;99.90
790;DHT22;378;48.844;9.156;2022-09-09T10:56:16;26.60;99.90
790;DHT22;378;48.844;9.156;2022-09-09T10:58:48;26.20;99.90
790;DHT22;378;48.844;9.156;2022-09-09T11:01:21;26.20;99.90
790;DHT22;378;48.844;9.156;2022-09-09T11:03:53;26.10;99.90
790;DHT22;378;48.844;9.156;2022-09-09T11:06:25;25.80;99.90
790;DHT22;378;48.844;9.156;2022-09-09T11:08:57;25.50;99.90
790;DHT22;378;48.844;9.156;2022-09-09T11:11:27;25.10;99.90
790;DHT22;378;48.844;9.156;2022-09-09T11:13:59;24.40;99.90
790;DHT22;378;48.844;9.156;2022-09-09T11:16:33;23.30;99.90
790;DHT22;378;48.844;9.156;2022-09-09T11:19:04;21.80;99.90
790;DHT22;378;48.844;9.156;2022-09-09T11:21:38;20.50;99.90
790;DHT22;378;48.844;9.156;2022-09-09T11:24:12;18.90;99.90
790;DHT22;378;48.844;9.156;2022-09-09T11:26:45;18.00;99.90
790;DHT22;378;48.844;9.156;2022-09-09T11:32:26;17.50;99.90
790;DHT22;378;48.844;9.156;2022-09-09T11:34:59;17.40;99.90
790;DHT22;378;48.844;9.156;2022-09-09T11:40:28;17.80;99.90
790;DHT22;378;48.844;9.156;2022-09-09T11:43:05;18.80;99.90
790;DHT22;378;48.844;9.156;2022-09-09T11:45:36;19.70;99.90
790;DHT22;378;48.844;9.156;2022-09-09T11:48:05;20.00;99.90
790;DHT22;378;48.844;9.156;2022-09-09T11:50:35;19.90;99.90
790;DHT22;378;48.844;9.156;2022-09-09T11:53:20;19.70;99.90
790;DHT22;378;48.844;9.156;2022-09-09T11:55:59;19.60;99.90
790;DHT22;378;48.844;9.156;2022-09-09T11:58:28;19.60;99.90
790;DHT22;378;48.844;9.156;2022-09-09T12:00:58;20.00;99.90
790;DHT22;378;48.844;9.156;2022-09-09T12:03:36;20.40;99.90
790;DHT22;378;48.844;9.156;2022-09-09T12:06:15;20.60;99.90
790;DHT22;378;48.844;9.156;2022-09-09T12:08:45;20.70;99.90
790;DHT22;378;48.844;9.156;2022-09-09T12:11:25;21.00;99.90
790;DHT22;378;48.844;9.156;2022-09-09T12:13:53;22.30;99.90
790;DHT22;378;48.844;9.156;2022-09-09T12:16:32;24.10;99.90
790;DHT22;378;48.844;9.156;2022-09-09T12:19:12;25.40;99.90
790;DHT22;378;48.844;9.156;2022-09-09T12:21:46;26.40;99.90
790;DHT22;378;48.844;9.156;2022-09-09T12:24:21;28.40;99.90
790;DHT22;378;48.844;9.156;2022-09-09T12:26:53;29.30;99.90
790;DHT22;378;48.844;9.156;2022-09-09T12:29:26;30.40;99.90
790;DHT22;378;48.844;9.156;2022-09-09T12:32:00;31.30;99.90
790;DHT22;378;48.844;9.156;2022-09-09T12:34:38;31.10;98.10
790;DHT22;378;48.844;9.156;2022-09-09T12:37:14;31.00;99.10
790;DHT22;378;48.844;9.156;2022-09-09T12:39:45;31.30;96.80
790;DHT22;378;48.844;9.156;2022-09-09T12:42:17;31.70;94.80
790;DHT22;378;48.844;9.156;2022-09-09T12:44:52;31.20;94.30
790;DHT22;378;48.844;9.156;2022-09-09T12:47:21;31.30;94.00
790;DHT22;378;48.844;9.156;2022-09-09T12:49:50;31.10;94.10
790;DHT22;378;48.844;9.156;2022-09-09T12:52:23;30.90;94.40
790;DHT22;378;48.844;9.156;2022-09-09T12:54:53;31.80;93.80
790;DHT22;378;48.844;9.156;2022-09-09T12:57:22;33.10;93.40
790;DHT22;378;48.844;9.156;2022-09-09T12:59:51;33.20;91.40
790;DHT22;378;48.844;9.156;2022-09-09T13:02:20;33.00;91.60
790;DHT22;378;48.844;9.156;2022-09-09T13:04:49;33.20;90.90
790;DHT22;378;48.844;9.156;2022-09-09T13:07:17;32.70;90.60
790;DHT22;378;48.844;9.156;2022-09-09T13:09:45;32.60;90.70
790;DHT22;378;48.844;9.156;2022-09-09T13:12:15;30.10;91.20
790;DHT22;378;48.844;9.156;2022-09-09T13:14:45;27.60;93.90
790;DHT22;378;48.844;9.156;2022-09-09T13:17:19;27.00;96.70
790;DHT22;378;48.844;9.156;2022-09-09T13:19:49;28.40;95.20
790;DHT22;378;48.844;9.156;2022-09-09T13:22:23;29.70;94.80
790;DHT22;378;48.844;9.156;2022-09-09T13:25:01;31.10;92.70
790;DHT22;378;48.844;9.156;2022-09-09T13:27:31;30.90;91.50
790;DHT22;378;48.844;9.156;2022-09-09T13:30:00;30.20;92.10
790;DHT22;378;48.844;9.156;2022-09-09T13:32:28;30.90;91.70
790;DHT22;378;48.844;9.156;2022-09-09T13:35:00;31.30;91.50
790;DHT22;378;48.844;9.156;2022-09-09T13:37:32;32.90;90.70
790;DHT22;378;48.844;9.156;2022-09-09T13:40:00;33.20;89.00
790;DHT22;378;48.844;9.156;2022-09-09T13:42:30;33.90;88.10
790;DHT22;378;48.844;9.156;2022-09-09T13:44:59;33.00;88.80
790;DHT22;378;48.844;9.156;2022-09-09T13:47:32;33.00;88.30
790;DHT22;378;48.844;9.156;2022-09-09T13:50:18;31.60;90.00
790;DHT22;378;48.844;9.156;2022-09-09T13:52:46;30.20;90.90
790;DHT22;378;48.844;9.156;2022-09-09T13:55:14;29.20;92.10
790;DHT22;378;48.844;9.156;2022-09-09T13:57:50;27.90;93.00
790;DHT22;378;48.844;9.156;2022-09-09T14:00:18;26.70;93.80
790;DHT22;378;48.844;9.156;2022-09-09T14:02:46;27.40;93.90
790;DHT22;378;48.844;9.156;2022-09-09T14:05:14;29.50;91.10
790;DHT22;378;48.844;9.156;2022-09-09T14:07:42;30.40;90.10
790;DHT22;378;48.844;9.156;2022-09-09T14:10:10;29.60;90.00
790;DHT22;378;48.844;9.156;2022-09-09T14:12:37;29.60;90.20
790;DHT22;378;48.844;9.156;2022-09-09T14:15:05;28.40;90.90
790;DHT22;378;48.844;9.156;2022-09-09T14:17:33;28.70;91.00
790;DHT22;378;48.844;9.156;2022-09-09T14:20:01;29.50;91.00
790;DHT22;378;48.844;9.156;2022-09-09T14:22:29;30.40;90.20
790;DHT22;378;48.844;9.156;2022-09-09T14:24:56;32.40;86.80
790;DHT22;378;48.844;9.156;2022-09-09T14:27:24;32.60;84.10
790;DHT22;378;48.844;9.156;2022-09-09T14:29:52;31.80;84.60
790;DHT22;378;48.844;9.156;2022-09-09T14:32:19;32.30;82.90
790;DHT22;378;48.844;9.156;2022-09-09T14:34:46;30.70;84.00
790;DHT22;378;48.844;9.156;2022-09-09T14:37:15;29.90;86.40
790;DHT22;378;48.844;9.156;2022-09-09T14:39:43;29.70;86.00
790;DHT22;378;48.844;9.156;2022-09-09T14:42:15;27.80;88.00
790;DHT22;378;48.844;9.156;2022-09-09T14:44:48;26.40;90.40
790;DHT22;378;48.844;9.156;2022-09-09T14:50:07;27.50;91.10
790;DHT22;378;48.844;9.156;2022-09-09T14:52:34;29.70;87.60
790;DHT22;378;48.844;9.156;2022-09-09T14:55:08;31.30;84.90
790;DHT22;378;48.844;9.156;2022-09-09T14:57:35;31.60;83.40
790;DHT22;378;48.844;9.156;2022-09-09T15:00:03;30.20;84.20
790;DHT22;378;48.844;9.156;2022-09-09T15:02:32;27.90;87.80
790;DHT22;378;48.844;9.156;2022-09-09T15:05:04;26.90;90.60
790;DHT22;378;48.844;9.156;2022-09-09T15:07:36;26.30;91.10
790;DHT22;378;48.844;9.156;2022-09-09T15:13:28;25.30;92.40
790;DHT22;378;48.844;9.156;2022-09-09T15:16:16;24.80;93.00
790;DHT22;378;48.844;9.156;2022-09-09T15:18:58;24.20;92.70
790;DHT22;378;48.844;9.156;2022-09-09T15:21:27;23.60;93.40
790;DHT22;378;48.844;9.156;2022-09-09T15:23:57;23.20;94.20
790;DHT22;378;48.844;9.156;2022-09-09T15:26:27;22.90;94.20
790;DHT22;378;48.844;9.156;2022-09-09T15:28:55;22.70;94.70
790;DHT22;378;48.844;9.156;2022-09-09T15:31:26;22.50;94.90
790;DHT22;378;48.844;9.156;2022-09-09T15:34:09;22.50;95.60
790;DHT22;378;48.844;9.156;2022-09-09T15:36:40;22.40;95.70
790;DHT22;378;48.844;9.156;2022-09-09T15:39:09;22.50;96.10
790;DHT22;378;48.844;9.156;2022-09-09T15:41:39;22.60;96.00
790;DHT22;378;48.844;9.156;2022-09-09T15:44:07;22.70;96.10
790;DHT22;378;48.844;9.156;2022-09-09T15:46:43;22.80;96.00
790;DHT22;378;48.844;9.156;2022-09-09T15:49:16;22.80;96.20
790;DHT22;378;48.844;9.156;2022-09-09T15:51:45;22.70;96.60
790;DHT22;378;48.844;9.156;2022-09-09T15:54:13;22.50;96.70
790;DHT22;378;48.844;9.156;2022-09-09T15:56:44;22.20;97.40
790;DHT22;378;48.844;9.156;2022-09-09T15:59:12;22.10;98.20
790;DHT22;378;48.844;9.156;2022-09-09T16:01:39;22.00;98.20
790;DHT22;378;48.844;9.156;2022-09-09T16:04:07;21.80;98.40
790;DHT22;378;48.844;9.156;2022-09-09T16:06:35;21.70;98.60
790;DHT22;378;48.844;9.156;2022-09-09T16:09:04;21.70;99.10
790;DHT22;378;48.844;9.156;2022-09-09T16:11:33;21.70;99.50
790;DHT22;378;48.844;9.156;2022-09-09T16:14:04;21.60;99.60
790;DHT22;378;48.844;9.156;2022-09-09T16:16:32;21.50;99.70
790;DHT22;378;48.844;9.156;2022-09-09T16:19:03;21.40;99.90
790;DHT22;378;48.844;9.156;2022-09-09T16:21:32;21.30;99.90
790;DHT22;378;48.844;9.156;2022-09-09T16:24:02;21.30;99.90
790;DHT22;378;48.844;9.156;2022-09-09T16:26:31;21.10;99.90
790;DHT22;378;48.844;9.156;2022-09-09T16:28:59;20.70;99.50
790;DHT22;378;48.844;9.156;2022-09-09T16:31:30;20.30;99.40
790;DHT22;378;48.844;9.156;2022-09-09T16:33:58;20.00;99.90
790;DHT22;378;48.844;9.156;2022-09-09T16:36:27;19.70;99.90
790;DHT22;378;48.844;9.156;2022-09-09T16:38:57;19.30;99.90
790;DHT22;378;48.844;9.156;2022-09-09T16:41:25;19.10;99.90
790;DHT22;378;48.844;9.156;2022-09-09T16:43:53;18.90;99.90
790;DHT22;378;48.844;9.156;2022-09-09T16:46:21;18.70;99.90
790;DHT22;378;48.844;9.156;2022-09-09T16:48:51;18.60;99.90
790;DHT22;378;48.844;9.156;2022-09-09T16:51:21;18.50;99.90
790;DHT22;378;48.844;9.156;2022-09-09T16:53:49;18.50;99.90
790;DHT22;378;48.844;9.156;2022-09-09T16:56:17;18.10;99.90
790;DHT22;378;48.844;9.156;2022-09-09T16:58:49;17.70;99.90
790;DHT22;378;48.844;9.156;2022-09-09T17:01:17;17.30;99.90
790;DHT22;378;48.844;9.156;2022-09-09T17:03:44;16.80;99.90
790;DHT22;378;48.844;9.156;2022-09-09T17:06:14;16.40;99.90
790;DHT22;378;48.844;9.156;2022-09-09T17:08:42;16.10;99.90
790;DHT22;378;48.844;9.156;2022-09-09T17:11:13;15.90;99.90
790;DHT22;378;48.844;9.156;2022-09-09T17:13:41;15.70;99.90
790;DHT22;378;48.844;9.156;2022-09-09T17:16:08;15.60;99.90
790;DHT22;378;48.844;9.156;2022-09-09T17:18:36;15.50;99.90
790;DHT22;378;48.844;9.156;2022-09-09T17:21:04;15.40;99.90
790;DHT22;378;48.844;9.156;2022-09-09T17:23:33;15.40;99.90